»·PEaware :: N8432D KGPI-KBIL

N8432D :: KGPI-KBIL

FLIGHT INFORMATION

Flight Status: Arrived
Operator: Privately registered:
United States
More flights under this callsign
Pilot: Eric W. (14379)
Aircraft: PIPER PA-31/31P NAVAJO CHIEFTAIN
(PA31)
More flights by this aircraft type
Origin: KGPI Glacier Park Intl
United States
Destination: KBIL Billings Logan Intl
United States
More flights between these airports :: More routes between these airports
Route: +SKOTT2 SKOTT
File this flight plan on PilotEdge
Remarks:
Altitude:
(Current/Filed)
15,000ft
Speed:
(Current/Filed)
230kts
Departed: 08-Nov-19 08:45 AM
Arrived: 08-Nov-19 10:09 AM
Distance/Time
Traveled:
278nm/1:24
Distance/Time
To Go:
Arrived

Flight Plot

Page will automatically refresh every two minutes.

Flight plan parsing failed; only flown route is shown


Map Options




Map Legend


Flown Route
Filed Route
Departure Airport
Arrival Airport
Navaid (VOR, NDB)
Fix

Horizontal Profiles

Position Reports

Time Latitude Longitude Heading Altitude Ground
Speed
08-Nov-19 08:11 48.309985 -114.250673 0 2966ft 0kts
08-Nov-19 08:12 48.309985 -114.250673 0 2966ft 0kts
08-Nov-19 08:13 48.309985 -114.250673 0 2966ft 0kts
08-Nov-19 08:14 48.309985 -114.250673 0 2966ft 0kts
08-Nov-19 08:15 48.309985 -114.250673 0 2966ft 0kts
08-Nov-19 08:16 48.309986 -114.250673 0 2966ft 0kts
08-Nov-19 08:17 48.309986 -114.250673 359 2966ft 0kts
08-Nov-19 08:18 48.309986 -114.250673 359 2966ft 0kts
08-Nov-19 08:19 48.309986 -114.250673 359 2966ft 0kts
08-Nov-19 08:20 48.309986 -114.250673 359 2966ft 0kts
08-Nov-19 08:20 48.309986 -114.250673 359 2966ft 0kts
08-Nov-19 08:22 48.309986 -114.250673 359 2966ft 0kts
08-Nov-19 08:22 48.309986 -114.250673 359 2966ft 0kts
08-Nov-19 08:23 48.309986 -114.250673 359 2966ft 0kts
08-Nov-19 08:25 48.309986 -114.250673 359 2966ft 0kts
08-Nov-19 08:25 48.309986 -114.250673 359 2966ft 0kts
08-Nov-19 08:26 48.309986 -114.250673 359 2966ft 0kts
08-Nov-19 08:27 48.309986 -114.250673 360 2966ft 0kts
08-Nov-19 08:28 48.309986 -114.250673 359 2966ft 0kts
08-Nov-19 08:29 48.309986 -114.250673 359 2966ft 0kts
08-Nov-19 08:30 48.309986 -114.250673 359 2966ft 0kts
08-Nov-19 08:31 48.309986 -114.250673 359 2966ft 0kts
08-Nov-19 08:32 48.309986 -114.250673 359 2966ft 0kts
08-Nov-19 08:33 48.309986 -114.250673 359 2966ft 0kts
08-Nov-19 08:34 48.309986 -114.250673 359 2966ft 0kts
08-Nov-19 08:35 48.310266 -114.253063 266 2967ft 18kts
08-Nov-19 08:36 48.305917 -114.258178 216 2965ft 21kts
08-Nov-19 08:37 48.300711 -114.263610 214 2961ft 23kts
08-Nov-19 08:38 48.298547 -114.265874 220 2960ft 1kts
08-Nov-19 08:39 48.298544 -114.265878 220 2960ft 0kts
08-Nov-19 08:40 48.298544 -114.265878 220 2960ft 0kts
08-Nov-19 08:41 48.298402 -114.266501 300 2960ft 3kts
08-Nov-19 08:42 48.298407 -114.266514 300 2960ft 0kts
08-Nov-19 08:43 48.299179 -114.267299 33 2960ft 9kts
08-Nov-19 08:44 48.325460 -114.238871 36 4540ft 142kts
08-Nov-19 08:45 48.361056 -114.202842 20 6784ft 164kts
08-Nov-19 08:46 48.381896 -114.238703 242 8410ft 163kts
08-Nov-19 08:47 48.336020 -114.252833 204 9059ft 166kts
08-Nov-19 08:48 48.292576 -114.235052 170 9893ft 186kts
08-Nov-19 08:49 48.246667 -114.202795 161 10907ft 182kts
08-Nov-19 08:50 48.200114 -114.174888 188 11956ft 175kts
08-Nov-19 08:51 48.151816 -114.171349 191 13002ft 176kts
08-Nov-19 08:52 48.101388 -114.167742 191 13966ft 180kts
08-Nov-19 08:53 48.049622 -114.164055 191 14783ft 185kts
08-Nov-19 08:54 47.994900 -114.160189 189 15067ft 205kts
08-Nov-19 08:55 47.934223 -114.155720 188 15005ft 211kts
08-Nov-19 08:56 47.876785 -114.151484 189 14371ft 195kts
08-Nov-19 08:57 47.821036 -114.147634 189 13431ft 190kts
08-Nov-19 08:58 47.767233 -114.143740 189 12999ft 195kts
08-Nov-19 08:59 47.711935 -114.122344 125 13072ft 245kts
08-Nov-19 09:00 47.681267 -114.030389 114 13013ft 250kts
08-Nov-19 09:01 47.652971 -113.937580 114 13296ft 242kts
08-Nov-19 09:02 47.623834 -113.842920 114 12967ft 252kts
08-Nov-19 09:03 47.595332 -113.750786 114 12909ft 242kts
08-Nov-19 09:04 47.567425 -113.660901 114 12980ft 239kts
08-Nov-19 09:05 47.539582 -113.571527 114 13075ft 239kts
08-Nov-19 09:06 47.511730 -113.482426 114 13133ft 241kts
08-Nov-19 09:07 47.483061 -113.390958 114 13059ft 243kts
08-Nov-19 09:08 47.453244 -113.296258 115 12880ft 243kts
08-Nov-19 09:09 47.424879 -113.206500 114 13101ft 230kts
08-Nov-19 09:10 47.395041 -113.111715 116 12725ft 245kts
08-Nov-19 09:11 47.365363 -113.019291 115 12879ft 241kts
08-Nov-19 09:12 47.335921 -112.927143 115 12880ft 242kts
08-Nov-19 09:13 47.305963 -112.833734 115 12889ft 242kts
08-Nov-19 09:14 47.275832 -112.740123 115 12897ft 242kts
08-Nov-19 09:15 47.246147 -112.648251 114 12945ft 240kts
08-Nov-19 09:16 47.216433 -112.556580 114 12965ft 240kts
08-Nov-19 09:17 47.187094 -112.466413 114 12967ft 242kts
08-Nov-19 09:18 47.156844 -112.373725 114 12800ft 242kts
08-Nov-19 09:19 47.127565 -112.284377 115 12795ft 239kts
08-Nov-19 09:20 47.098495 -112.195995 115 12795ft 239kts
08-Nov-19 09:21 47.069426 -112.107891 115 12796ft 239kts
08-Nov-19 09:22 47.039598 -112.017797 115 12797ft 239kts
08-Nov-19 09:23 47.008894 -111.925385 115 12798ft 239kts
08-Nov-19 09:24 46.979238 -111.836473 115 12933ft 236kts
08-Nov-19 09:25 46.950036 -111.749160 115 12943ft 240kts
08-Nov-19 09:26 46.920616 -111.661498 115 12935ft 240kts
08-Nov-19 09:27 46.891135 -111.573969 115 12931ft 239kts
08-Nov-19 09:28 46.861646 -111.486716 115 12931ft 239kts
08-Nov-19 09:29 46.832187 -111.399836 115 12933ft 239kts
08-Nov-19 09:30 46.802122 -111.311372 116 12738ft 240kts
08-Nov-19 09:31 46.772932 -111.225985 115 12927ft 235kts
08-Nov-19 09:32 46.743534 -111.140108 115 12972ft 236kts
08-Nov-19 09:33 46.713989 -111.054123 115 13011ft 237kts
08-Nov-19 09:34 46.684473 -110.968476 115 12914ft 242kts
08-Nov-19 09:35 46.654335 -110.881320 115 12856ft 237kts
08-Nov-19 09:36 46.624576 -110.795576 115 12856ft 237kts
08-Nov-19 09:37 46.594772 -110.709956 115 12857ft 237kts
08-Nov-19 09:38 46.564956 -110.624578 115 12859ft 237kts
08-Nov-19 09:39 46.534943 -110.538917 115 12862ft 237kts
08-Nov-19 09:40 46.504949 -110.453585 115 12864ft 237kts
08-Nov-19 09:41 46.474781 -110.368029 115 12848ft 237kts
08-Nov-19 09:42 46.444580 -110.282643 116 12837ft 236kts
08-Nov-19 09:43 46.414402 -110.197635 116 12835ft 236kts
08-Nov-19 09:44 46.384410 -110.113409 116 12886ft 235kts
08-Nov-19 09:45 46.354174 -110.028745 116 12895ft 236kts
08-Nov-19 09:46 46.323768 -109.943882 116 12898ft 236kts
08-Nov-19 09:47 46.293259 -109.859004 116 12901ft 236kts
08-Nov-19 09:48 46.262914 -109.774860 115 12948ft 236kts
08-Nov-19 09:49 46.232439 -109.690609 115 12968ft 238kts
08-Nov-19 09:50 46.201488 -109.605261 116 12810ft 241kts
08-Nov-19 09:51 46.170914 -109.521357 115 12999ft 232kts
08-Nov-19 09:52 46.143143 -109.445208 115 12564ft 205kts
08-Nov-19 09:53 46.116709 -109.372839 116 11937ft 207kts
08-Nov-19 09:54 46.089273 -109.297981 118 11043ft 219kts
08-Nov-19 09:55 46.060357 -109.219615 119 10321ft 219kts
08-Nov-19 09:56 46.032734 -109.142095 117 9692ft 217kts
08-Nov-19 09:57 46.005999 -109.065867 117 8714ft 211kts
08-Nov-19 09:58 45.980200 -108.991123 117 7839ft 206kts
08-Nov-19 09:59 45.955297 -108.917531 117 7150ft 200kts
08-Nov-19 10:00 45.932068 -108.847964 117 7014ft 186kts
08-Nov-19 10:01 45.909706 -108.780919 117 6838ft 190kts
08-Nov-19 10:02 45.887780 -108.714538 105 6496ft 158kts
08-Nov-19 10:03 45.877355 -108.663793 111 5819ft 195kts
08-Nov-19 10:04 45.857256 -108.590202 113 5175ft 201kts
08-Nov-19 10:05 45.838892 -108.521777 118 4727ft 134kts
08-Nov-19 10:06 45.818153 -108.490194 204 4408ft 102kts
08-Nov-19 10:07 45.810455 -108.520842 258 3766ft 80kts
08-Nov-19 10:08 45.808649 -108.544524 263 3555ft 17kts
08-Nov-19 10:09 45.807063 -108.541427 108 3551ft 26kts
08-Nov-19 10:10 45.805479 -108.535644 107 3527ft 21kts
08-Nov-19 10:11 45.804139 -108.530044 191 3503ft 4kts
08-Nov-19 10:12 45.804013 -108.530533 265 3505ft 0kts
08-Nov-19 10:13 45.804013 -108.530533 265 3505ft 0kts
08-Nov-19 10:14 45.804013 -108.530533 265 3505ft 0kts

Navigation Log

Ident Type
Flight plan parsing failed, navigation log unavailable